sensor_id;sensor_type;location;lat;lon;timestamp;pressure;altitude;pressure_sealevel;temperature;humidity
51259;BME280;37327;54.254;18.504;2023-02-01T00:02:22;99182.37;;;1.76;100.00
51259;BME280;37327;54.254;18.504;2023-02-01T00:05:29;99189.34;;;1.77;100.00
51259;BME280;37327;54.254;18.504;2023-02-01T00:08:36;99175.05;;;1.78;100.00
51259;BME280;37327;54.254;18.504;2023-02-01T00:11:43;99189.03;;;1.80;100.00
51259;BME280;37327;54.254;18.504;2023-02-01T00:14:50;99190.68;;;1.81;100.00
51259;BME280;37327;54.254;18.504;2023-02-01T00:17:57;99175.55;;;1.82;100.00
51259;BME280;37327;54.254;18.504;2023-02-01T00:21:04;99185.37;;;1.81;100.00
51259;BME280;37327;54.254;18.504;2023-02-01T00:24:11;99190.16;;;1.77;100.00
51259;BME280;37327;54.254;18.504;2023-02-01T00:27:18;99179.84;;;1.74;100.00
51259;BME280;37327;54.254;18.504;2023-02-01T00:30:27;99191.33;;;1.75;100.00
51259;BME280;37327;54.254;18.504;2023-02-01T00:33:34;99191.17;;;1.76;100.00
51259;BME280;37327;54.254;18.504;2023-02-01T00:36:43;99195.34;;;1.79;100.00
51259;BME280;37327;54.254;18.504;2023-02-01T00:39:50;99200.36;;;1.82;100.00
51259;BME280;37327;54.254;18.504;2023-02-01T00:42:56;99191.89;;;1.87;100.00
51259;BME280;37327;54.254;18.504;2023-02-01T00:46:04;99187.23;;;1.89;100.00
51259;BME280;37327;54.254;18.504;2023-02-01T00:49:10;99194.25;;;1.90;100.00
51259;BME280;37327;54.254;18.504;2023-02-01T00:52:17;99193.38;;;1.89;100.00
51259;BME280;37327;54.254;18.504;2023-02-01T00:55:24;99178.09;;;1.91;100.00
51259;BME280;37327;54.254;18.504;2023-02-01T00:58:31;99176.44;;;1.90;100.00
51259;BME280;37327;54.254;18.504;2023-02-01T01:01:39;99165.12;;;1.88;100.00
51259;BME280;37327;54.254;18.504;2023-02-01T01:04:46;99165.61;;;1.84;100.00
51259;BME280;37327;54.254;18.504;2023-02-01T01:07:52;99172.05;;;1.81;100.00
51259;BME280;37327;54.254;18.504;2023-02-01T01:11:22;99173.37;;;1.77;100.00
51259;BME280;37327;54.254;18.504;2023-02-01T01:14:18;99173.37;;;1.77;100.00
51259;BME280;37327;54.254;18.504;2023-02-01T01:17:26;99178.02;;;1.75;100.00
51259;BME280;37327;54.254;18.504;2023-02-01T01:20:38;99180.68;;;1.75;100.00
51259;BME280;37327;54.254;18.504;2023-02-01T01:23:45;99174.53;;;1.74;100.00
51259;BME280;37327;54.254;18.504;2023-02-01T01:26:53;99173.37;;;1.77;100.00
51259;BME280;37327;54.254;18.504;2023-02-01T01:30:00;99165.23;;;1.78;100.00
51259;BME280;37327;54.254;18.504;2023-02-01T01:33:07;99170.41;;;1.80;100.00
51259;BME280;37327;54.254;18.504;2023-02-01T01:36:15;99174.05;;;1.79;100.00
51259;BME280;37327;54.254;18.504;2023-02-01T01:39:22;99175.88;;;1.78;100.00
51259;BME280;37327;54.254;18.504;2023-02-01T01:42:29;99174.20;;;1.77;100.00
51259;BME280;37327;54.254;18.504;2023-02-01T01:45:36;99181.34;;;1.77;100.00
51259;BME280;37327;54.254;18.504;2023-02-01T01:48:43;99178.69;;;1.77;100.00
51259;BME280;37327;54.254;18.504;2023-02-01T01:51:56;99178.69;;;1.77;100.00
51259;BME280;37327;54.254;18.504;2023-02-01T01:55:05;99200.80;;;1.77;100.00
51259;BME280;37327;54.254;18.504;2023-02-01T01:58:18;99183.34;;;1.75;100.00
51259;BME280;37327;54.254;18.504;2023-02-01T02:01:26;99180.68;;;1.75;100.00
51259;BME280;37327;54.254;18.504;2023-02-01T02:04:34;99209.27;;;1.73;100.00
51259;BME280;37327;54.254;18.504;2023-02-01T02:07:45;99196.27;;;1.70;100.00
51259;BME280;37327;54.254;18.504;2023-02-01T02:10:53;99193.79;;;1.68;100.00
51259;BME280;37327;54.254;18.504;2023-02-01T02:14:08;99194.77;;;1.67;100.00
51259;BME280;37327;54.254;18.504;2023-02-01T02:17:25;99183.07;;;1.60;100.00
51259;BME280;37327;54.254;18.504;2023-02-01T02:20:45;99189.88;;;1.54;100.00
51259;BME280;37327;54.254;18.504;2023-02-01T02:40:39;99205.02;;;1.36;100.00
51259;BME280;37327;54.254;18.504;2023-02-01T02:43:53;99210.34;;;1.36;100.00
51259;BME280;37327;54.254;18.504;2023-02-01T02:47:40;99207.53;;;1.37;100.00
51259;BME280;37327;54.254;18.504;2023-02-01T02:50:41;99210.58;;;1.43;100.00
51259;BME280;37327;54.254;18.504;2023-02-01T02:54:08;99226.05;;;1.47;100.00
51259;BME280;37327;54.254;18.504;2023-02-01T02:57:39;99225.73;;;1.50;100.00
51259;BME280;37327;54.254;18.504;2023-02-01T03:00:59;99246.71;;;1.53;100.00
51259;BME280;37327;54.254;18.504;2023-02-01T03:04:20;99239.36;;;1.47;100.00
51259;BME280;37327;54.254;18.504;2023-02-01T03:11:02;99215.80;;;1.34;100.00
51259;BME280;37327;54.254;18.504;2023-02-01T03:14:12;99211.10;;;1.28;100.00
51259;BME280;37327;54.254;18.504;2023-02-01T03:17:28;99220.38;;;1.24;100.00
51259;BME280;37327;54.254;18.504;2023-02-01T03:20:40;99225.41;;;1.27;100.00
51259;BME280;37327;54.254;18.504;2023-02-01T03:23:52;99220.59;;;1.31;100.00
51259;BME280;37327;54.254;18.504;2023-02-01T03:30:30;99210.87;;;1.40;100.00
51259;BME280;37327;54.254;18.504;2023-02-01T03:33:33;99223.02;;;1.42;100.00
51259;BME280;37327;54.254;18.504;2023-02-01T03:40:01;99227.70;;;1.48;100.00
51259;BME280;37327;54.254;18.504;2023-02-01T03:43:14;99213.44;;;1.49;100.00
51259;BME280;37327;54.254;18.504;2023-02-01T03:46:52;99209.09;;;1.48;100.00
51259;BME280;37327;54.254;18.504;2023-02-01T03:49:51;99215.41;;;1.47;100.00
51259;BME280;37327;54.254;18.504;2023-02-01T03:56:22;99218.70;;;1.41;100.00
51259;BME280;37327;54.254;18.504;2023-02-01T03:59:31;99221.36;;;1.41;100.00
51259;BME280;37327;54.254;18.504;2023-02-01T04:02:38;99221.21;;;1.43;100.00
51259;BME280;37327;54.254;18.504;2023-02-01T04:05:45;99221.03;;;1.44;100.00
51259;BME280;37327;54.254;18.504;2023-02-01T04:08:51;99225.23;;;1.47;100.00
51259;BME280;37327;54.254;18.504;2023-02-01T04:11:58;99218.77;;;1.49;100.00
51259;BME280;37327;54.254;18.504;2023-02-01T04:15:06;99213.29;;;1.51;100.00
51259;BME280;37327;54.254;18.504;2023-02-01T04:18:13;99232.06;;;1.49;100.00
51259;BME280;37327;54.254;18.504;2023-02-01T04:21:20;99206.43;;;1.48;100.00
51259;BME280;37327;54.254;18.504;2023-02-01T04:24:27;99202.27;;;1.46;100.00
51259;BME280;37327;54.254;18.504;2023-02-01T04:27:34;99224.23;;;1.48;100.00
51259;BME280;37327;54.254;18.504;2023-02-01T04:30:41;99233.03;;;1.48;100.00
51259;BME280;37327;54.254;18.504;2023-02-01T04:33:48;99224.55;;;1.45;100.00
51259;BME280;37327;54.254;18.504;2023-02-01T04:36:55;99222.34;;;1.40;100.00
51259;BME280;37327;54.254;18.504;2023-02-01T04:40:02;99229.64;;;1.38;100.00
51259;BME280;37327;54.254;18.504;2023-02-01T04:43:10;99210.66;;;1.33;100.00
51259;BME280;37327;54.254;18.504;2023-02-01T04:46:16;99197.82;;;1.28;100.00
51259;BME280;37327;54.254;18.504;2023-02-01T04:49:23;99208.77;;;1.25;100.00
51259;BME280;37327;54.254;18.504;2023-02-01T04:52:33;99193.79;;;1.24;100.00
51259;BME280;37327;54.254;18.504;2023-02-01T04:55:40;99200.80;;;1.25;100.00
51259;BME280;37327;54.254;18.504;2023-02-01T04:58:47;99205.26;;;1.25;100.00
51259;BME280;37327;54.254;18.504;2023-02-01T05:01:54;99207.77;;;1.26;100.00
51259;BME280;37327;54.254;18.504;2023-02-01T05:05:02;99204.96;;;1.28;100.00
51259;BME280;37327;54.254;18.504;2023-02-01T05:08:09;99208.30;;;1.30;100.00
51259;BME280;37327;54.254;18.504;2023-02-01T05:11:16;99214.30;;;1.32;100.00
51259;BME280;37327;54.254;18.504;2023-02-01T05:14:35;99208.69;;;1.35;100.00
51259;BME280;37327;54.254;18.504;2023-02-01T05:17:42;99205.85;;;1.36;100.00
51259;BME280;37327;54.254;18.504;2023-02-01T05:20:49;99196.75;;;1.39;100.00
51259;BME280;37327;54.254;18.504;2023-02-01T05:23:56;99194.77;;;1.41;100.00
51259;BME280;37327;54.254;18.504;2023-02-01T05:27:15;99190.27;;;1.42;100.00
51259;BME280;37327;54.254;18.504;2023-02-01T05:30:22;99179.48;;;1.43;100.00
51259;BME280;37327;54.254;18.504;2023-02-01T05:33:29;99187.13;;;1.46;100.00
51259;BME280;37327;54.254;18.504;2023-02-01T05:36:36;99189.50;;;1.49;100.00
51259;BME280;37327;54.254;18.504;2023-02-01T05:39:43;99199.84;;;1.52;100.00
51259;BME280;37327;54.254;18.504;2023-02-01T05:42:50;99188.20;;;1.53;100.00
51259;BME280;37327;54.254;18.504;2023-02-01T05:45:57;99180.88;;;1.55;100.00
51259;BME280;37327;54.254;18.504;2023-02-01T05:49:04;99183.41;;;1.57;100.00
51259;BME280;37327;54.254;18.504;2023-02-01T05:52:11;99186.06;;;1.57;100.00
51259;BME280;37327;54.254;18.504;2023-02-01T05:55:18;99182.73;;;1.55;100.00
51259;BME280;37327;54.254;18.504;2023-02-01T05:58:25;99186.54;;;1.52;100.00
51259;BME280;37327;54.254;18.504;2023-02-01T06:01:32;99211.61;;;1.50;100.00
51259;BME280;37327;54.254;18.504;2023-02-01T06:04:39;99209.27;;;1.47;100.00
51259;BME280;37327;54.254;18.504;2023-02-01T06:07:46;99214.05;;;1.43;100.00
51259;BME280;37327;54.254;18.504;2023-02-01T06:11:01;99209.03;;;1.40;100.00
51259;BME280;37327;54.254;18.504;2023-02-01T06:14:09;99203.52;;;1.33;100.00
51259;BME280;37327;54.254;18.504;2023-02-01T06:17:17;99207.77;;;1.26;100.00
51259;BME280;37327;54.254;18.504;2023-02-01T06:20:24;99199.41;;;1.21;100.00
51259;BME280;37327;54.254;18.504;2023-02-01T06:23:31;99197.23;;;1.16;100.00
51259;BME280;37327;54.254;18.504;2023-02-01T06:26:38;99201.71;;;1.16;100.00
51259;BME280;37327;54.254;18.504;2023-02-01T06:29:46;99206.20;;;1.15;100.00
51259;BME280;37327;54.254;18.504;2023-02-01T06:32:53;99194.41;;;1.18;100.00
51259;BME280;37327;54.254;18.504;2023-02-01T06:36:05;99209.22;;;1.21;100.00
51259;BME280;37327;54.254;18.504;2023-02-01T06:40:36;99200.95;;;1.24;100.00
51259;BME280;37327;54.254;18.504;2023-02-01T06:43:43;99196.30;;;1.26;100.00
51259;BME280;37327;54.254;18.504;2023-02-01T06:46:52;99199.32;;;1.31;100.00
51259;BME280;37327;54.254;18.504;2023-02-01T06:49:59;99209.52;;;1.35;100.00
51259;BME280;37327;54.254;18.504;2023-02-01T06:53:06;99214.36;;;1.40;100.00
51259;BME280;37327;54.254;18.504;2023-02-01T06:56:13;99198.40;;;1.40;100.00
51259;BME280;37327;54.254;18.504;2023-02-01T06:59:20;99195.07;;;1.38;100.00
51259;BME280;37327;54.254;18.504;2023-02-01T07:02:27;99204.88;;;1.37;100.00
51259;BME280;37327;54.254;18.504;2023-02-01T07:05:34;99207.53;;;1.37;100.00
51259;BME280;37327;54.254;18.504;2023-02-01T07:08:41;99207.68;;;1.36;100.00
51259;BME280;37327;54.254;18.504;2023-02-01T07:11:48;99213.15;;;1.34;100.00
51259;BME280;37327;54.254;18.504;2023-02-01T07:14:55;99197.73;;;1.38;100.00
51259;BME280;37327;54.254;18.504;2023-02-01T07:18:03;99187.76;;;1.40;100.00
51259;BME280;37327;54.254;18.504;2023-02-01T07:21:11;99206.23;;;1.42;100.00
51259;BME280;37327;54.254;18.504;2023-02-01T07:24:18;99200.62;;;1.45;100.00
51259;BME280;37327;54.254;18.504;2023-02-01T07:27:26;99202.13;;;1.47;100.00
51259;BME280;37327;54.254;18.504;2023-02-01T07:34:44;99192.73;;;1.61;100.00
51259;BME280;37327;54.254;18.504;2023-02-01T07:37:52;99193.93;;;1.67;100.00
51259;BME280;37327;54.254;18.504;2023-02-01T07:41:00;99205.63;;;1.74;100.00
51259;BME280;37327;54.254;18.504;2023-02-01T07:44:07;99201.66;;;1.78;100.00
51259;BME280;37327;54.254;18.504;2023-02-01T07:47:13;99189.55;;;1.84;100.00
51259;BME280;37327;54.254;18.504;2023-02-01T07:50:21;99197.73;;;1.90;100.00
51259;BME280;37327;54.254;18.504;2023-02-01T07:53:29;99201.75;;;1.94;100.00
51259;BME280;37327;54.254;18.504;2023-02-01T07:56:37;99193.12;;;2.01;100.00
51259;BME280;37327;54.254;18.504;2023-02-01T07:59:43;99190.98;;;2.04;100.00
51259;BME280;37327;54.254;18.504;2023-02-01T08:03:03;99182.51;;;2.09;100.00
51259;BME280;37327;54.254;18.504;2023-02-01T08:06:11;99193.38;;;2.15;100.00
51259;BME280;37327;54.254;18.504;2023-02-01T08:09:18;99199.73;;;2.23;100.00
51259;BME280;37327;54.254;18.504;2023-02-01T08:12:25;99197.40;;;2.28;100.00
51259;BME280;37327;54.254;18.504;2023-02-01T08:15:33;99190.60;;;2.33;100.00
51259;BME280;37327;54.254;18.504;2023-02-01T08:18:40;99192.96;;;2.36;100.00
51259;BME280;37327;54.254;18.504;2023-02-01T08:25:19;99196.98;;;2.49;100.00
51259;BME280;37327;54.254;18.504;2023-02-01T08:28:26;99197.16;;;2.55;100.00
51259;BME280;37327;54.254;18.504;2023-02-01T08:31:33;99200.49;;;2.57;100.00
51259;BME280;37327;54.254;18.504;2023-02-01T08:34:39;99203.16;;;2.57;100.00
51259;BME280;37327;54.254;18.504;2023-02-01T08:37:46;99190.35;;;2.61;100.00
51259;BME280;37327;54.254;18.504;2023-02-01T08:40:53;99215.36;;;2.68;100.00
51259;BME280;37327;54.254;18.504;2023-02-01T08:43:59;99202.72;;;2.79;100.00
51259;BME280;37327;54.254;18.504;2023-02-01T08:47:07;99195.08;;;2.92;100.00
51259;BME280;37327;54.254;18.504;2023-02-01T08:50:14;99186.77;;;3.03;100.00
51259;BME280;37327;54.254;18.504;2023-02-01T08:53:22;99186.11;;;3.09;100.00
51259;BME280;37327;54.254;18.504;2023-02-01T08:56:29;99199.94;;;3.13;100.00
51259;BME280;37327;54.254;18.504;2023-02-01T08:59:36;99193.27;;;3.17;100.00
51259;BME280;37327;54.254;18.504;2023-02-01T09:02:43;99182.44;;;3.19;100.00
51259;BME280;37327;54.254;18.504;2023-02-01T09:05:50;99193.78;;;3.21;100.00
51259;BME280;37327;54.254;18.504;2023-02-01T09:08:57;99186.77;;;3.20;100.00
51259;BME280;37327;54.254;18.504;2023-02-01T09:12:04;99181.43;;;3.20;100.00
51259;BME280;37327;54.254;18.504;2023-02-01T09:15:11;99181.94;;;3.23;100.00
51259;BME280;37327;54.254;18.504;2023-02-01T09:18:19;99177.11;;;3.27;100.00
51259;BME280;37327;54.254;18.504;2023-02-01T09:21:25;99156.25;;;3.39;100.00
51259;BME280;37327;54.254;18.504;2023-02-01T09:24:33;99178.40;;;3.47;100.00
51259;BME280;37327;54.254;18.504;2023-02-01T09:27:40;99190.91;;;3.55;100.00
51259;BME280;37327;54.254;18.504;2023-02-01T09:30:46;99184.56;;;3.64;100.00
51259;BME280;37327;54.254;18.504;2023-02-01T09:33:53;99174.88;;;3.71;100.00
51259;BME280;37327;54.254;18.504;2023-02-01T09:37:00;99166.68;;;3.73;100.00
51259;BME280;37327;54.254;18.504;2023-02-01T09:40:14;99177.03;;;3.76;100.00
51259;BME280;37327;54.254;18.504;2023-02-01T09:46:39;99180.03;;;3.73;100.00
51259;BME280;37327;54.254;18.504;2023-02-01T09:53:15;99191.04;;;3.78;100.00
51259;BME280;37327;54.254;18.504;2023-02-01T09:56:29;99177.00;;;3.84;100.00
51259;BME280;37327;54.254;18.504;2023-02-01T10:02:58;99180.34;;;3.86;100.00
51259;BME280;37327;54.254;18.504;2023-02-01T10:16:13;99213.70;;;3.99;100.00
51259;BME280;37327;54.254;18.504;2023-02-01T10:19:33;99213.70;;;3.99;100.00
51259;BME280;37327;54.254;18.504;2023-02-01T10:22:44;99213.70;;;3.99;100.00
51259;BME280;37327;54.254;18.504;2023-02-01T10:25:55;99223.88;;;3.95;100.00
51259;BME280;37327;54.254;18.504;2023-02-01T10:29:22;99219.23;;;3.89;100.00
51259;BME280;37327;54.254;18.504;2023-02-01T10:32:29;99230.93;;;3.80;100.00
51259;BME280;37327;54.254;18.504;2023-02-01T10:35:37;99216.56;;;3.81;100.00
51259;BME280;37327;54.254;18.504;2023-02-01T10:38:48;99224.91;;;3.86;100.00
51259;BME280;37327;54.254;18.504;2023-02-01T10:41:56;99230.38;;;3.92;100.00
51259;BME280;37327;54.254;18.504;2023-02-01T10:45:04;99227.72;;;3.92;100.00
51259;BME280;37327;54.254;18.504;2023-02-01T10:48:12;99223.40;;;3.91;100.00
51259;BME280;37327;54.254;18.504;2023-02-01T10:51:29;99233.93;;;3.85;100.00
51259;BME280;37327;54.254;18.504;2023-02-01T10:54:39;99228.59;;;3.85;100.00
51259;BME280;37327;54.254;18.504;2023-02-01T11:01:06;99224.72;;;3.95;100.00
51259;BME280;37327;54.254;18.504;2023-02-01T11:04:16;99232.20;;;4.00;100.00
51259;BME280;37327;54.254;18.504;2023-02-01T11:07:26;99239.38;;;4.00;100.00
51259;BME280;37327;54.254;18.504;2023-02-01T11:10:39;99227.52;;;4.02;100.00
51259;BME280;37327;54.254;18.504;2023-02-01T11:13:59;99239.20;;;4.09;100.00
51259;BME280;37327;54.254;18.504;2023-02-01T11:20:38;99236.39;;;4.03;100.00
51259;BME280;37327;54.254;18.504;2023-02-01T11:23:50;99223.73;;;3.97;100.00
51259;BME280;37327;54.254;18.504;2023-02-01T11:26:59;99229.92;;;3.89;100.00
51259;BME280;37327;54.254;18.504;2023-02-01T11:30:55;99225.22;;;3.83;100.00
51259;BME280;37327;54.254;18.504;2023-02-01T11:33:30;99232.75;;;3.71;100.00
51259;BME280;37327;54.254;18.504;2023-02-01T11:36:41;99234.77;;;3.61;100.00
51259;BME280;37327;54.254;18.504;2023-02-01T11:39:56;99228.27;;;3.55;100.00
51259;BME280;37327;54.254;18.504;2023-02-01T11:46:34;99219.42;;;3.63;100.00
51259;BME280;37327;54.254;18.504;2023-02-01T11:49:41;99218.42;;;3.72;100.00
51259;BME280;37327;54.254;18.504;2023-02-01T11:56:18;99242.61;;;3.87;100.00
51259;BME280;37327;54.254;18.504;2023-02-01T11:59:38;99262.45;;;3.84;100.00
51259;BME280;37327;54.254;18.504;2023-02-01T12:02:57;99268.45;;;3.86;100.00
51259;BME280;37327;54.254;18.504;2023-02-01T12:06:12;99257.77;;;3.86;100.00
51259;BME280;37327;54.254;18.504;2023-02-01T12:26:19;99271.13;;;3.45;100.00
51259;BME280;37327;54.254;18.504;2023-02-01T12:42:44;99261.78;;;3.82;100.00
51259;BME280;37327;54.254;18.504;2023-02-01T12:46:00;99258.11;;;3.91;100.00
51259;BME280;37327;54.254;18.504;2023-02-01T12:52:40;99271.27;;;4.01;100.00
51259;BME280;37327;54.254;18.504;2023-02-01T12:55:55;99252.05;;;4.06;100.00
51259;BME280;37327;54.254;18.504;2023-02-01T12:59:10;99270.07;;;4.12;100.00
51259;BME280;37327;54.254;18.504;2023-02-01T13:02:27;99264.21;;;4.25;100.00
51259;BME280;37327;54.254;18.504;2023-02-01T13:05:48;99254.67;;;4.30;100.00
51259;BME280;37327;54.254;18.504;2023-02-01T13:12:21;99247.16;;;4.34;100.00
51259;BME280;37327;54.254;18.504;2023-02-01T13:15:40;99252.66;;;4.32;100.00
51259;BME280;37327;54.254;18.504;2023-02-01T13:18:57;99257.67;;;4.27;100.00
51259;BME280;37327;54.254;18.504;2023-02-01T13:22:20;99258.06;;;4.16;100.00
51259;BME280;37327;54.254;18.504;2023-02-01T13:28:59;99252.25;;;3.96;100.00
51259;BME280;37327;54.254;18.504;2023-02-01T13:42:14;99275.83;;;3.60;100.00
51259;BME280;37327;54.254;18.504;2023-02-01T13:45:26;99271.13;;;3.45;100.00
51259;BME280;37327;54.254;18.504;2023-02-01T13:48:50;99281.14;;;3.35;100.00
51259;BME280;37327;54.254;18.504;2023-02-01T13:51:55;99279.64;;;3.24;100.00
51259;BME280;37327;54.254;18.504;2023-02-01T14:01:39;99273.75;;;3.04;100.00
51259;BME280;37327;54.254;18.504;2023-02-01T14:04:50;99282.04;;;2.93;100.00
51259;BME280;37327;54.254;18.504;2023-02-01T14:14:42;99258.84;;;2.77;100.00
51259;BME280;37327;54.254;18.504;2023-02-01T14:17:49;99253.70;;;2.75;100.00
51259;BME280;37327;54.254;18.504;2023-02-01T14:27:35;99277.02;;;2.73;100.00
51259;BME280;37327;54.254;18.504;2023-02-01T14:30:43;99283.48;;;2.71;100.00
51259;BME280;37327;54.254;18.504;2023-02-01T14:33:58;99286.98;;;2.71;100.00
51259;BME280;37327;54.254;18.504;2023-02-01T14:37:07;99284.30;;;2.71;100.00
51259;BME280;37327;54.254;18.504;2023-02-01T14:40:24;99291.48;;;2.71;100.00
51259;BME280;37327;54.254;18.504;2023-02-01T14:53:35;99298.34;;;2.73;100.00
51259;BME280;37327;54.254;18.504;2023-02-01T14:56:45;99289.64;;;2.71;100.00
51259;BME280;37327;54.254;18.504;2023-02-01T15:00:05;99298.12;;;2.67;100.00
51259;BME280;37327;54.254;18.504;2023-02-01T15:03:32;99304.93;;;2.61;100.00
51259;BME280;37327;54.254;18.504;2023-02-01T15:06:38;99309.74;;;2.57;100.00
51259;BME280;37327;54.254;18.504;2023-02-01T15:09:47;99313.27;;;2.58;100.00
51259;BME280;37327;54.254;18.504;2023-02-01T15:12:55;99314.39;;;2.55;100.00
51259;BME280;37327;54.254;18.504;2023-02-01T15:16:11;99318.89;;;2.55;100.00
51259;BME280;37327;54.254;18.504;2023-02-01T15:19:18;99332.52;;;2.52;100.00
51259;BME280;37327;54.254;18.504;2023-02-01T15:22:26;99332.71;;;2.50;100.00
51259;BME280;37327;54.254;18.504;2023-02-01T15:25:38;99355.82;;;2.50;100.00
51259;BME280;37327;54.254;18.504;2023-02-01T15:28:45;99338.49;;;2.46;100.00
51259;BME280;37327;54.254;18.504;2023-02-01T15:31:52;99341.94;;;2.38;100.00
51259;BME280;37327;54.254;18.504;2023-02-01T15:35:01;99342.57;;;2.32;100.00
51259;BME280;37327;54.254;18.504;2023-02-01T15:41:30;99358.30;;;2.17;100.00
51259;BME280;37327;54.254;18.504;2023-02-01T15:44:40;99347.96;;;2.14;100.00
51259;BME280;37327;54.254;18.504;2023-02-01T15:47:49;99356.57;;;2.08;100.00
51259;BME280;37327;54.254;18.504;2023-02-01T15:50:58;99359.70;;;2.03;100.00
51259;BME280;37327;54.254;18.504;2023-02-01T15:54:07;99361.98;;;1.98;100.00
51259;BME280;37327;54.254;18.504;2023-02-01T15:57:24;99361.16;;;1.97;100.00
51259;BME280;37327;54.254;18.504;2023-02-01T16:00:45;99368.82;;;2.01;100.00
51259;BME280;37327;54.254;18.504;2023-02-01T16:07:24;99357.19;;;2.02;100.00
51259;BME280;37327;54.254;18.504;2023-02-01T16:10:41;99348.35;;;2.01;100.00
51259;BME280;37327;54.254;18.504;2023-02-01T16:13:48;99360.98;;;1.99;100.00
51259;BME280;37327;54.254;18.504;2023-02-01T16:16:57;99362.52;;;2.02;100.00
51259;BME280;37327;54.254;18.504;2023-02-01T16:20:05;99358.84;;;2.03;100.00
51259;BME280;37327;54.254;18.504;2023-02-01T16:23:12;99353.53;;;2.03;100.00
51259;BME280;37327;54.254;18.504;2023-02-01T16:26:20;99359.00;;;2.01;100.00
51259;BME280;37327;54.254;18.504;2023-02-01T16:29:28;99350.18;;;2.01;100.00
51259;BME280;37327;54.254;18.504;2023-02-01T16:32:34;99354.53;;;2.02;100.00
51259;BME280;37327;54.254;18.504;2023-02-01T16:35:44;99357.19;;;2.02;100.00
51259;BME280;37327;54.254;18.504;2023-02-01T16:38:51;99349.20;;;2.02;100.00
51259;BME280;37327;54.254;18.504;2023-02-01T16:41:59;99366.16;;;2.01;100.00
51259;BME280;37327;54.254;18.504;2023-02-01T16:45:07;99362.82;;;1.98;100.00
51259;BME280;37327;54.254;18.504;2023-02-01T16:48:25;99368.82;;;2.01;100.00
51259;BME280;37327;54.254;18.504;2023-02-01T16:51:33;99363.35;;;2.02;100.00
51259;BME280;37327;54.254;18.504;2023-02-01T16:54:41;99363.05;;;2.05;100.00
51259;BME280;37327;54.254;18.504;2023-02-01T16:57:49;99361.90;;;2.08;100.00
51259;BME280;37327;54.254;18.504;2023-02-01T17:00:57;99361.42;;;2.12;100.00
51259;BME280;37327;54.254;18.504;2023-02-01T17:04:04;99352.30;;;2.15;100.00
51259;BME280;37327;54.254;18.504;2023-02-01T17:07:17;99358.99;;;2.19;100.00
51259;BME280;37327;54.254;18.504;2023-02-01T17:10:25;99354.48;;;2.20;100.00
51259;BME280;37327;54.254;18.504;2023-02-01T17:13:34;99347.34;;;2.20;100.00
51259;BME280;37327;54.254;18.504;2023-02-01T17:16:42;99347.17;;;2.22;100.00
51259;BME280;37327;54.254;18.504;2023-02-01T17:19:52;99354.19;;;2.23;100.00
51259;BME280;37327;54.254;18.504;2023-02-01T17:23:00;99355.02;;;2.23;100.00
51259;BME280;37327;54.254;18.504;2023-02-01T17:26:09;99341.55;;;2.25;100.00
51259;BME280;37327;54.254;18.504;2023-02-01T17:29:17;99349.36;;;2.26;100.00
51259;BME280;37327;54.254;18.504;2023-02-01T17:32:25;99354.53;;;2.28;100.00
51259;BME280;37327;54.254;18.504;2023-02-01T17:35:32;99343.73;;;2.29;100.00
51259;BME280;37327;54.254;18.504;2023-02-01T17:38:40;99356.04;;;2.30;100.00
51259;BME280;37327;54.254;18.504;2023-02-01T17:41:47;99369.21;;;2.32;100.00
51259;BME280;37327;54.254;18.504;2023-02-01T17:45:01;99361.07;;;2.33;100.00
51259;BME280;37327;54.254;18.504;2023-02-01T17:48:13;99357.42;;;2.34;100.00
51259;BME280;37327;54.254;18.504;2023-02-01T17:51:22;99353.75;;;2.35;100.00
51259;BME280;37327;54.254;18.504;2023-02-01T17:54:29;99344.78;;;2.36;100.00
51259;BME280;37327;54.254;18.504;2023-02-01T17:57:36;99337.24;;;2.32;100.00
51259;BME280;37327;54.254;18.504;2023-02-01T18:00:44;99348.05;;;2.30;100.00
51259;BME280;37327;54.254;18.504;2023-02-01T18:03:51;99349.88;;;2.30;100.00
51259;BME280;37327;54.254;18.504;2023-02-01T18:06:58;99352.70;;;2.28;100.00
51259;BME280;37327;54.254;18.504;2023-02-01T18:10:07;99344.03;;;2.26;100.00
51259;BME280;37327;54.254;18.504;2023-02-01T18:13:14;99343.05;;;2.27;100.00
51259;BME280;37327;54.254;18.504;2023-02-01T18:16:23;99353.55;;;2.29;100.00
51259;BME280;37327;54.254;18.504;2023-02-01T18:19:30;99349.36;;;2.26;100.00
51259;BME280;37327;54.254;18.504;2023-02-01T18:22:38;99355.84;;;2.24;100.00
51259;BME280;37327;54.254;18.504;2023-02-01T18:25:45;99349.16;;;2.20;100.00
51259;BME280;37327;54.254;18.504;2023-02-01T18:28:53;99356.47;;;2.17;100.00
51259;BME280;37327;54.254;18.504;2023-02-01T18:32:00;99354.98;;;2.15;100.00
51259;BME280;37327;54.254;18.504;2023-02-01T18:38:27;99346.60;;;2.10;100.00
51259;BME280;37327;54.254;18.504;2023-02-01T18:41:34;99346.60;;;2.10;100.00
51259;BME280;37327;54.254;18.504;2023-02-01T18:44:41;99344.23;;;2.07;100.00
51259;BME280;37327;54.254;18.504;2023-02-01T18:47:49;99349.90;;;2.04;100.00
51259;BME280;37327;54.254;18.504;2023-02-01T18:50:56;99342.20;;;2.01;100.00
51259;BME280;37327;54.254;18.504;2023-02-01T18:54:03;99340.00;;;1.96;100.00
51259;BME280;37327;54.254;18.504;2023-02-01T18:57:11;99339.33;;;1.94;100.00
51259;BME280;37327;54.254;18.504;2023-02-01T19:00:21;99342.45;;;1.89;100.00
51259;BME280;37327;54.254;18.504;2023-02-01T19:03:28;99343.73;;;1.85;100.00
51259;BME280;37327;54.254;18.504;2023-02-01T19:06:34;99342.91;;;1.85;100.00
51259;BME280;37327;54.254;18.504;2023-02-01T19:09:41;99336.77;;;1.84;100.00
51259;BME280;37327;54.254;18.504;2023-02-01T19:12:50;99340.10;;;1.86;100.00
51259;BME280;37327;54.254;18.504;2023-02-01T19:15:57;99329.31;;;1.88;100.00